Terminal Aerodrome Forecast
Issued by NWS

Home | Current Version | Previous Version | Text Only | Print | Product List | Glossary On
Versions: 1 2 3 4 5 6 7 8 9 10 11 12
000
FTUS44 KEPZ 180500
TAFLRU
TAF
KLRU 180520Z 1806/1906 26008KT P6SM FEW050 SCT200
     FM181000 30004KT P6SM SCT050 OVC130
     FM182300 26006KT P6SM VCSH SCT050 BKN090=

USA.gov is the U.S. government's official web portal to all federal, state and local government web resources and services.